Time;durP1;ratioP1;P1;durP2;ratioP2;P2;SDS_P1;SDS_P2;PMS_P1;PMS_P2;Temp;Humidity;BMP_temperature;BMP_pressure;BME280_temperature;BME280_humidity;BME280_pressure;Samples;Min_cycle;Max_cycle;Signal;HPM_P1;HPM_P2
2023/04/18 00:00:35;;;;;;;;;;;;;;;8.02;100.00;102593.91;4968633;28;20318;-70
2023/04/18 00:03:01;;;;;;;;;;;;;;;7.93;100.00;102588.91;4974570;28;20040;-70
2023/04/18 00:05:26;;;;;;;;;;;;;;;7.92;100.00;102584.50;4969566;28;19922;-70
2023/04/18 00:07:52;;;;;;;;;;;;;;;7.85;100.00;102582.97;4984818;28;19922;-70
2023/04/18 00:10:17;;;;;;;;;;;;;;;7.83;100.00;102583.06;4986953;28;19937;-70
2023/04/18 00:12:42;;;;;;;;;;;;;;;7.84;100.00;102584.78;4978823;28;22167;-70
2023/04/18 00:15:08;;;;;;;;;;;;;;;7.84;100.00;102587.47;4974310;28;19972;-70
2023/04/18 00:17:34;;;;;;;;;;;;;;;7.76;100.00;102592.22;4984473;28;20395;-70
2023/04/18 00:20:03;;;;;;;;;;;;;;;7.72;100.00;102586.13;4970740;28;20435;-70
2023/04/18 00:22:28;;;;;;;;;;;;;;;7.63;100.00;102587.34;4969215;28;19943;-70
2023/04/18 00:24:53;;;;;;;;;;;;;;;7.57;100.00;102586.69;4969998;28;19926;-70
2023/04/18 00:27:19;;;;;;;;;;;;;;;7.57;100.00;102584.91;4970264;28;19926;-70
2023/04/18 00:29:45;;;;;;;;;;;;;;;7.50;100.00;102589.63;4964274;28;19957;-70
2023/04/18 00:32:11;;;;;;;;;;;;;;;7.45;100.00;102580.88;4968913;28;19926;-70
2023/04/18 00:34:36;;;;;;;;;;;;;;;7.44;100.00;102583.59;4963597;28;20431;-70
2023/04/18 00:37:01;;;;;;;;;;;;;;;7.43;100.00;102579.19;4969832;28;19922;-70
2023/04/18 00:39:26;;;;;;;;;;;;;;;7.32;100.00;102580.47;4982766;28;19926;-70
2023/04/18 00:41:52;;;;;;;;;;;;;;;7.28;100.00;102577.97;4971717;28;20287;-69
2023/04/18 00:44:17;;;;;;;;;;;;;;;7.25;100.00;102570.06;4965914;28;19926;-70
2023/04/18 00:46:42;;;;;;;;;;;;;;;7.18;100.00;102574.72;4967333;28;19961;-70
2023/04/18 00:49:07;;;;;;;;;;;;;;;7.09;100.00;102575.06;4966397;28;20374;-70
2023/04/18 00:51:33;;;;;;;;;;;;;;;7.11;100.00;102568.75;4982833;28;19921;-70
2023/04/18 00:53:58;;;;;;;;;;;;;;;7.08;100.00;102571.50;4977198;28;19944;-70
2023/04/18 00:56:24;;;;;;;;;;;;;;;6.94;100.00;102572.00;4967905;28;20380;-70
2023/04/18 00:58:50;;;;;;;;;;;;;;;6.90;100.00;102571.25;4969165;28;19922;-70
2023/04/18 01:01:15;;;;;;;;;;;;;;;6.79;100.00;102569.88;4967103;28;19921;-69
2023/04/18 01:03:40;;;;;;;;;;;;;;;6.77;100.00;102572.56;4963814;28;20347;-70
2023/04/18 01:06:05;;;;;;;;;;;;;;;6.78;100.00;102574.31;4967139;28;19969;-70
2023/04/18 01:08:30;;;;;;;;;;;;;;;6.74;100.00;102581.56;4965443;28;19967;-70
2023/04/18 01:10:56;;;;;;;;;;;;;;;6.71;100.00;102576.34;4986906;28;19995;-70
2023/04/18 01:13:21;;;;;;;;;;;;;;;6.73;100.00;102578.97;4973109;28;19926;-70
2023/04/18 01:15:47;;;;;;;;;;;;;;;6.72;100.00;102578.06;4967027;28;19925;-71
2023/04/18 01:18:15;;;;;;;;;;;;;;;6.69;100.00;102572.84;4946355;28;19928;-70
2023/04/18 01:20:41;;;;;;;;;;;;;;;6.59;100.00;102574.94;4971044;28;19980;-70
2023/04/18 01:23:09;;;;;;;;;;;;;;;6.58;100.00;102570.53;4971816;28;19926;-70
2023/04/18 01:25:34;;;;;;;;;;;;;;;6.58;100.00;102565.19;4964492;28;19922;-70
2023/04/18 01:27:59;;;;;;;;;;;;;;;6.45;100.00;102561.19;4986260;28;19965;-70
2023/04/18 01:30:24;;;;;;;;;;;;;;;6.42;100.00;102566.63;4983049;28;19933;-70
2023/04/18 01:32:50;;;;;;;;;;;;;;;6.33;100.00;102559.81;4980520;28;19921;-70
2023/04/18 01:35:16;;;;;;;;;;;;;;;6.24;100.00;102560.94;4983661;28;19928;-70
2023/04/18 01:37:41;;;;;;;;;;;;;;;6.19;100.00;102560.25;4964191;28;21773;-70
2023/04/18 01:40:07;;;;;;;;;;;;;;;6.10;100.00;102553.38;4967483;28;19926;-70
2023/04/18 01:42:32;;;;;;;;;;;;;;;6.12;100.00;102556.88;4983598;28;19972;-70
2023/04/18 01:44:57;;;;;;;;;;;;;;;6.11;100.00;102559.59;4965307;28;19940;-70
2023/04/18 01:47:23;;;;;;;;;;;;;;;6.13;100.00;102555.97;4967000;28;19933;-70
2023/04/18 01:49:48;;;;;;;;;;;;;;;6.00;100.00;102559.94;4973235;28;19929;-70
2023/04/18 01:52:13;;;;;;;;;;;;;;;5.98;100.00;102556.41;4973416;28;19925;-70
2023/04/18 01:54:39;;;;;;;;;;;;;;;5.97;100.00;102549.34;4967089;28;19921;-70
2023/04/18 01:57:04;;;;;;;;;;;;;;;5.99;100.00;102555.50;4967235;28;19929;-70
2023/04/18 01:59:29;;;;;;;;;;;;;;;5.88;100.00;102558.50;4962686;28;19929;-70
2023/04/18 02:01:54;;;;;;;;;;;;;;;5.84;100.00;102560.38;4981791;28;19971;-70
2023/04/18 02:04:20;;;;;;;;;;;;;;;5.82;100.00;102558.69;4968265;28;19922;-70
2023/04/18 02:06:45;;;;;;;;;;;;;;;5.80;100.00;102557.84;4960310;28;19933;-70
2023/04/18 02:09:10;;;;;;;;;;;;;;;5.79;100.00;102554.31;4967394;28;20077;-70
2023/04/18 02:11:36;;;;;;;;;;;;;;;5.77;100.00;102552.59;4967258;28;20068;-70
2023/04/18 02:14:01;;;;;;;;;;;;;;;5.70;100.00;102552.78;4965503;28;20540;-70
2023/04/18 02:16:26;;;;;;;;;;;;;;;5.70;100.00;102551.91;4986481;28;19964;-71
2023/04/18 02:18:51;;;;;;;;;;;;;;;5.67;100.00;102546.69;4974819;28;20016;-70
2023/04/18 02:21:16;;;;;;;;;;;;;;;5.70;100.00;102546.59;4978058;28;20336;-70
2023/04/18 02:23:42;;;;;;;;;;;;;;;5.52;100.00;102546.22;4974068;28;20347;-70
2023/04/18 02:26:07;;;;;;;;;;;;;;;5.47;100.00;102544.59;4973904;28;20414;-70
2023/04/18 02:28:32;;;;;;;;;;;;;;;5.46;100.00;102551.72;4974075;28;19921;-70
2023/04/18 02:30:58;;;;;;;;;;;;;;;5.44;100.00;102553.56;4970418;28;20210;-70
2023/04/18 02:33:23;;;;;;;;;;;;;;;5.42;100.00;102549.22;4972943;28;19932;-70
2023/04/18 02:35:48;;;;;;;;;;;;;;;5.38;100.00;102551.94;4976757;28;19929;-70
2023/04/18 02:38:14;;;;;;;;;;;;;;;5.33;100.00;102548.53;4977598;28;19922;-70
2023/04/18 02:40:39;;;;;;;;;;;;;;;5.36;100.00;102553.78;4974406;28;19922;-70
2023/04/18 02:43:04;;;;;;;;;;;;;;;5.22;100.00;102553.28;4989397;28;19944;-70
2023/04/18 02:45:29;;;;;;;;;;;;;;;5.22;100.00;102551.50;4971071;28;20422;-70
2023/04/18 02:47:55;;;;;;;;;;;;;;;5.22;100.00;102545.28;4972525;28;19981;-70
2023/04/18 02:50:20;;;;;;;;;;;;;;;5.22;100.00;102547.97;4974878;28;19922;-70
2023/04/18 02:52:45;;;;;;;;;;;;;;;5.16;100.00;102545.50;4970450;28;19930;-70
2023/04/18 02:55:11;;;;;;;;;;;;;;;5.17;100.00;102547.19;4959809;28;20292;-70
2023/04/18 02:57:36;;;;;;;;;;;;;;;4.96;100.00;102530.91;4975879;28;20372;-70
2023/04/18 03:00:01;;;;;;;;;;;;;;;5.00;100.00;102550.34;4975821;28;20375;-70
2023/04/18 03:02:26;;;;;;;;;;;;;;;4.94;100.00;102552.25;4990948;28;20281;-70
2023/04/18 03:04:52;;;;;;;;;;;;;;;4.89;100.00;102545.31;4970772;28;20012;-70
2023/04/18 03:07:17;;;;;;;;;;;;;;;4.78;100.00;102550.91;4974925;28;19930;-70
2023/04/18 03:09:42;;;;;;;;;;;;;;;4.86;100.00;102548.06;4974599;28;19952;-70
2023/04/18 03:12:07;;;;;;;;;;;;;;;4.83;100.00;102542.81;4976238;28;20388;-70
2023/04/18 03:14:32;;;;;;;;;;;;;;;4.83;100.00;102538.34;4974258;28;20366;-70
2023/04/18 03:16:58;;;;;;;;;;;;;;;4.80;100.00;102543.75;4972249;28;20372;-70
2023/04/18 03:19:23;;;;;;;;;;;;;;;4.77;100.00;102541.16;4975003;28;20411;-70
2023/04/18 03:21:48;;;;;;;;;;;;;;;4.74;100.00;102547.44;4974965;28;19922;-70
2023/04/18 03:24:13;;;;;;;;;;;;;;;4.71;100.00;102539.53;4988538;28;19937;-70
2023/04/18 03:26:39;;;;;;;;;;;;;;;4.77;100.00;102549.16;4974436;28;19985;-71
2023/04/18 03:29:05;;;;;;;;;;;;;;;4.71;100.00;102539.53;4967205;28;20005;-69
2023/04/18 03:31:30;;;;;;;;;;;;;;;4.71;100.00;102542.19;4969725;28;19933;-70
2023/04/18 03:33:56;;;;;;;;;;;;;;;4.70;100.00;102547.59;4971566;28;19926;-70
2023/04/18 03:36:24;;;;;;;;;;;;;;;4.63;100.00;102544.22;4975294;28;20374;-70
2023/04/18 03:38:49;;;;;;;;;;;;;;;4.71;100.00;102549.34;4967781;28;19921;-70
2023/04/18 03:41:14;;;;;;;;;;;;;;;4.65;100.00;102547.69;4968557;28;20424;-70
2023/04/18 03:43:39;;;;;;;;;;;;;;;4.65;100.00;102545.91;4968887;28;20448;-70
2023/04/18 03:46:05;;;;;;;;;;;;;;;4.56;100.00;102559.44;4973059;28;20564;-71
2023/04/18 03:48:34;;;;;;;;;;;;;;;4.50;100.00;102540.97;4974448;28;19960;-70
2023/04/18 03:50:59;;;;;;;;;;;;;;;4.53;100.00;102553.31;4963387;28;19921;-70
2023/04/18 03:53:24;;;;;;;;;;;;;;;4.45;100.00;102556.19;4974467;28;20351;-70
2023/04/18 03:55:50;;;;;;;;;;;;;;;4.44;100.00;102557.09;4972557;28;20393;-71
2023/04/18 03:58:16;;;;;;;;;;;;;;;4.47;100.00;102552.56;4962229;28;20452;-70
2023/04/18 04:00:41;;;;;;;;;;;;;;;4.57;100.00;102550.53;4978971;28;19925;-70
2023/04/18 04:03:07;;;;;;;;;;;;;;;4.44;100.00;102554.44;4978702;28;20582;-70
2023/04/18 04:05:32;;;;;;;;;;;;;;;4.45;100.00;102551.72;4975906;28;20441;-70
2023/04/18 04:07:57;;;;;;;;;;;;;;;4.41;100.00;102558.03;4988045;28;20335;-70
2023/04/18 04:10:22;;;;;;;;;;;;;;;4.42;100.00;102551.78;4978891;28;20047;-70
2023/04/18 04:12:48;;;;;;;;;;;;;;;4.40;100.00;102542.97;4977143;28;19930;-70
2023/04/18 04:15:13;;;;;;;;;;;;;;;4.39;100.00;102554.53;4987819;28;20288;-71
2023/04/18 04:17:38;;;;;;;;;;;;;;;4.37;100.00;102555.47;4968565;28;19961;-70
2023/04/18 04:20:04;;;;;;;;;;;;;;;4.37;100.00;102552.81;4970553;28;20304;-70
2023/04/18 04:22:30;;;;;;;;;;;;;;;4.36;100.00;102557.28;4973652;28;19953;-70
2023/04/18 04:24:56;;;;;;;;;;;;;;;4.32;100.00;102545.81;4971802;28;19922;-71
2023/04/18 04:27:22;;;;;;;;;;;;;;;4.30;100.00;102541.47;4976073;28;19929;-70
2023/04/18 04:29:48;;;;;;;;;;;;;;;4.23;100.00;102562.00;4990813;28;19925;-70
2023/04/18 04:32:15;;;;;;;;;;;;;;;4.34;100.00;102564.41;4983076;28;19924;-70
2023/04/18 04:34:41;;;;;;;;;;;;;;;4.35;100.00;102559.06;4985926;28;20060;-70
2023/04/18 04:37:07;;;;;;;;;;;;;;;4.31;100.00;102561.81;4979500;28;20048;-70
2023/04/18 04:39:32;;;;;;;;;;;;;;;4.32;100.00;102563.56;4976599;28;19929;-70
2023/04/18 04:41:57;;;;;;;;;;;;;;;4.33;100.00;102565.31;4984116;28;19968;-70
2023/04/18 04:44:25;;;;;;;;;;;;;;;4.30;100.00;102571.56;4981732;28;20293;-70
2023/04/18 04:46:51;;;;;;;;;;;;;;;4.31;100.00;102564.50;4990227;28;20698;-70
2023/04/18 04:49:16;;;;;;;;;;;;;;;4.27;100.00;102570.78;4995176;28;19921;-70
2023/04/18 04:51:41;;;;;;;;;;;;;;;4.21;100.00;102569.16;4977708;28;19929;-70
2023/04/18 04:54:07;;;;;;;;;;;;;;;4.00;100.00;102550.09;4975016;28;20223;-70
2023/04/18 04:56:32;;;;;;;;;;;;;;;4.21;100.00;102577.13;4970143;28;19918;-70
2023/04/18 04:58:57;;;;;;;;;;;;;;;4.34;100.00;102575.91;4976040;28;20088;-70
2023/04/18 05:01:22;;;;;;;;;;;;;;;4.30;100.00;102576.91;4971781;28;20678;-70
2023/04/18 05:03:50;;;;;;;;;;;;;;;4.31;100.00;102578.66;4972417;28;20808;-70
2023/04/18 05:06:19;;;;;;;;;;;;;;;4.34;100.00;102575.91;4971465;28;19926;-70
2023/04/18 05:08:45;;;;;;;;;;;;;;;4.36;100.00;102575.91;4971882;28;19934;-70
2023/04/18 05:11:11;;;;;;;;;;;;;;;4.37;100.00;102576.75;4979601;28;19921;-70
2023/04/18 05:13:36;;;;;;;;;;;;;;;4.41;100.00;102578.44;4981375;28;19980;-70
2023/04/18 05:16:01;;;;;;;;;;;;;;;4.48;100.00;102583.56;4973392;28;19921;-70
2023/04/18 05:18:26;;;;;;;;;;;;;;;4.58;100.00;102573.56;4971223;28;19981;-70
2023/04/18 05:20:52;;;;;;;;;;;;;;;4.61;100.00;102569.97;4974986;28;19964;-70
2023/04/18 05:23:17;;;;;;;;;;;;;;;4.72;100.00;102569.72;4977173;28;19928;-70
2023/04/18 05:25:42;;;;;;;;;;;;;;;4.84;100.00;102574.69;4970433;28;20381;-70
2023/04/18 05:28:07;;;;;;;;;;;;;;;5.01;100.00;102574.25;4976852;28;20372;-70
2023/04/18 05:30:33;;;;;;;;;;;;;;;5.01;100.00;102554.75;4977489;28;20427;-70
2023/04/18 05:32:58;;;;;;;;;;;;;;;5.18;100.00;102580.91;4974451;28;20363;-70
2023/04/18 05:35:23;;;;;;;;;;;;;;;5.28;100.00;102578.91;4973249;28;20366;-70
2023/04/18 05:37:49;;;;;;;;;;;;;;;5.38;100.00;102578.59;4991403;28;20127;-70
2023/04/18 05:40:14;;;;;;;;;;;;;;;5.52;100.00;102588.84;4975906;28;20004;-70
2023/04/18 05:42:39;;;;;;;;;;;;;;;5.65;100.00;102591.16;4973001;28;20423;-70
2023/04/18 05:45:05;;;;;;;;;;;;;;;5.74;100.00;102588.22;4967629;28;20020;-71
2023/04/18 05:47:32;;;;;;;;;;;;;;;5.83;100.00;102593.28;4975376;28;19973;-70
2023/04/18 05:49:57;;;;;;;;;;;;;;;6.04;100.00;102598.94;4978397;28;20012;-70
2023/04/18 05:52:24;;;;;;;;;;;;;;;5.98;100.00;102589.28;4992316;28;20288;-69
2023/04/18 05:54:49;;;;;;;;;;;;;;;6.13;100.00;102595.09;4968604;28;19922;-71
2023/04/18 05:57:15;;;;;;;;;;;;;;;6.25;100.00;102607.19;4976222;28;19928;-71
2023/04/18 05:59:40;;;;;;;;;;;;;;;6.27;100.00;102605.34;4976694;28;19921;-70
2023/04/18 06:02:11;;;;;;;;;;;;;;;6.28;100.00;102599.94;4972142;28;19994;-71
2023/04/18 06:04:37;;;;;;;;;;;;;;;6.40;100.00;102606.69;4974309;28;20467;-70
2023/04/18 06:07:02;;;;;;;;;;;;;;;6.50;100.00;102601.94;4974044;28;20329;-71
2023/04/18 06:09:27;;;;;;;;;;;;;;;6.57;100.00;102603.47;4974180;28;19966;-70
2023/04/18 06:11:52;;;;;;;;;;;;;;;6.60;100.00;102608.72;4974306;28;20017;-70
2023/04/18 06:14:17;;;;;;;;;;;;;;;6.68;100.00;102612.94;4972232;28;19921;-71
2023/04/18 06:16:43;;;;;;;;;;;;;;;6.68;100.00;102613.81;4974492;28;19948;-70
2023/04/18 06:19:08;;;;;;;;;;;;;;;6.71;100.00;102616.38;4988871;28;20329;-70
2023/04/18 06:21:33;;;;;;;;;;;;;;;6.71;100.00;102626.19;4970022;28;20316;-72
2023/04/18 06:24:00;;;;;;;;;;;;;;;6.73;100.00;102611.00;4978426;28;20387;-72
2023/04/18 06:26:25;;;;;;;;;;;;;;;6.80;100.00;102611.66;4976458;28;20603;-70
2023/04/18 06:28:50;;;;;;;;;;;;;;;6.85;100.00;102618.59;4970358;28;19938;-71
2023/04/18 06:31:15;;;;;;;;;;;;;;;7.01;100.00;102623.44;4963540;28;19922;-70
2023/04/18 06:33:40;;;;;;;;;;;;;;;6.83;100.00;102619.56;4976694;28;19922;-71
2023/04/18 06:36:06;;;;;;;;;;;;;;;6.85;100.00;102621.25;4975617;28;19922;-70
2023/04/18 06:38:31;;;;;;;;;;;;;;;6.78;100.00;102625.03;4971925;28;19933;-70
2023/04/18 06:40:56;;;;;;;;;;;;;;;6.71;100.00;102621.72;4973526;28;19928;-71
2023/04/18 06:43:22;;;;;;;;;;;;;;;6.66;100.00;102629.00;4978133;28;21015;-70
2023/04/18 06:45:47;;;;;;;;;;;;;;;6.67;100.00;102632.56;4970696;28;20392;-71
2023/04/18 06:48:12;;;;;;;;;;;;;;;6.57;100.00;102630.16;4966212;28;19933;-70
2023/04/18 06:50:37;;;;;;;;;;;;;;;6.69;100.00;102636.03;4970001;28;20001;-70
2023/04/18 06:53:02;;;;;;;;;;;;;;;6.62;100.00;102634.50;4970520;28;19949;-70
2023/04/18 06:55:28;;;;;;;;;;;;;;;6.71;100.00;102635.06;4974055;28;20277;-70
2023/04/18 06:57:53;;;;;;;;;;;;;;;6.70;100.00;102632.47;4974736;28;20363;-70
2023/04/18 07:00:18;;;;;;;;;;;;;;;6.74;100.00;102642.13;4966635;28;20337;-70
2023/04/18 07:02:43;;;;;;;;;;;;;;;6.80;100.00;102649.91;4970283;28;20325;-70
2023/04/18 07:05:09;;;;;;;;;;;;;;;6.91;100.00;102646.88;4972039;28;19922;-71
2023/04/18 07:07:34;;;;;;;;;;;;;;;6.91;100.00;102641.53;4991401;28;19984;-70
2023/04/18 07:09:59;;;;;;;;;;;;;;;7.03;100.00;102638.47;4974523;28;20325;-70
2023/04/18 07:12:25;;;;;;;;;;;;;;;7.07;100.00;102638.34;4972414;28;19925;-71
2023/04/18 07:14:50;;;;;;;;;;;;;;;7.01;100.00;102642.13;4974843;28;19921;-70
2023/04/18 07:17:16;;;;;;;;;;;;;;;7.24;100.00;102646.66;4962387;28;20159;-70
2023/04/18 07:19:41;;;;;;;;;;;;;;;7.49;100.00;102643.09;4969729;28;19968;-70
2023/04/18 07:22:07;;;;;;;;;;;;;;;7.69;100.00;102642.41;4973699;28;20015;-70
2023/04/18 07:24:32;;;;;;;;;;;;;;;7.90;100.00;102640.72;4978198;28;20012;-70
2023/04/18 07:26:57;;;;;;;;;;;;;;;8.07;100.00;102644.56;4970719;28;20381;-70
2023/04/18 07:29:23;;;;;;;;;;;;;;;8.05;100.00;102649.97;4970076;28;19925;-70
2023/04/18 07:31:48;;;;;;;;;;;;;;;8.09;100.00;102651.56;4970266;28;20194;-71
2023/04/18 07:34:13;;;;;;;;;;;;;;;8.15;100.00;102644.25;4971156;28;20443;-71
2023/04/18 07:36:39;;;;;;;;;;;;;;;8.24;100.00;102650.13;4971596;28;20543;-71
2023/04/18 07:39:04;;;;;;;;;;;;;;;8.00;100.00;102659.97;4991178;28;19968;-70
2023/04/18 07:41:29;;;;;;;;;;;;;;;8.12;100.00;102658.63;4977062;28;19961;-70
2023/04/18 07:43:54;;;;;;;;;;;;;;;8.16;100.00;102657.59;4971823;28;20519;-70
2023/04/18 07:46:20;;;;;;;;;;;;;;;8.29;100.00;102662.44;4972677;28;19926;-71
2023/04/18 07:48:45;;;;;;;;;;;;;;;8.25;100.00;102665.25;4976520;28;19917;-71
2023/04/18 07:51:10;;;;;;;;;;;;;;;8.28;100.00;102660.69;4973051;28;19922;-70
2023/04/18 07:53:36;;;;;;;;;;;;;;;8.16;100.00;102656.69;4967727;28;19925;-71
2023/04/18 07:56:01;;;;;;;;;;;;;;;8.39;100.00;102662.03;4972475;28;19924;-71
2023/04/18 07:58:26;;;;;;;;;;;;;;;8.67;100.00;102657.41;4974339;28;19922;-71
2023/04/18 08:00:51;;;;;;;;;;;;;;;9.10;100.00;102644.03;4972140;28;19921;-69
2023/04/18 08:03:17;;;;;;;;;;;;;;;9.39;100.00;102650.81;4971446;28;20016;-70
2023/04/18 08:05:42;;;;;;;;;;;;;;;9.63;100.00;102666.75;4972383;28;19929;-70
2023/04/18 08:08:08;;;;;;;;;;;;;;;9.39;100.00;102664.22;4972746;28;20259;-70
2023/04/18 08:10:33;;;;;;;;;;;;;;;9.37;100.00;102665.22;4969420;28;20347;-71
2023/04/18 08:12:59;;;;;;;;;;;;;;;9.36;100.00;102658.13;4964985;28;19933;-70
2023/04/18 08:15:26;;;;;;;;;;;;;;;9.39;100.00;102663.34;4973927;28;19922;-70
2023/04/18 08:17:51;;;;;;;;;;;;;;;9.41;100.00;102666.81;4972518;28;19922;-71
2023/04/18 08:20:16;;;;;;;;;;;;;;;9.54;100.00;102664.47;4966521;28;20312;-71
2023/04/18 08:22:42;;;;;;;;;;;;;;;9.87;100.00;102662.09;4974135;28;20012;-71
2023/04/18 08:25:07;;;;;;;;;;;;;;;10.24;98.61;102664.00;4972380;28;20482;-70
2023/04/18 08:27:32;;;;;;;;;;;;;;;10.34;100.00;102668.00;4991179;28;19969;-71
2023/04/18 08:29:58;;;;;;;;;;;;;;;10.24;97.41;102661.31;4970078;28;19936;-70
2023/04/18 08:32:24;;;;;;;;;;;;;;;10.35;95.93;102659.84;4971968;28;19922;-70
2023/04/18 08:34:49;;;;;;;;;;;;;;;10.31;94.90;102669.03;4973024;28;19999;-71
2023/04/18 08:37:15;;;;;;;;;;;;;;;10.36;97.13;102668.78;4972023;28;19922;-70
2023/04/18 08:39:40;;;;;;;;;;;;;;;10.69;90.36;102660.09;4971535;28;20300;-70
2023/04/18 08:42:05;;;;;;;;;;;;;;;10.89;90.75;102663.59;4968515;28;19922;-71
2023/04/18 08:44:31;;;;;;;;;;;;;;;11.19;87.86;102657.59;4983558;28;19922;-71
2023/04/18 08:46:59;;;;;;;;;;;;;;;11.57;86.48;102662.78;4955924;28;19957;-71
2023/04/18 08:49:24;;;;;;;;;;;;;;;11.69;82.22;102661.25;4972584;28;20424;-70
2023/04/18 08:51:52;;;;;;;;;;;;;;;11.50;82.82;102658.69;4985333;28;20040;-71
2023/04/18 08:54:18;;;;;;;;;;;;;;;11.77;86.24;102660.88;4987720;28;20395;-70
2023/04/18 08:56:43;;;;;;;;;;;;;;;11.95;80.38;102658.97;4985326;28;20320;-70
2023/04/18 08:59:10;;;;;;;;;;;;;;;12.18;79.52;102651.50;4985913;28;19926;-70
2023/04/18 09:01:48;;;;;;;;;;;;;;;12.22;78.79;102651.25;4981579;28;19922;-70
2023/04/18 09:04:28;;;;;;;;;;;;;;;12.51;80.50;102659.50;4973469;28;19922;-70
2023/04/18 09:06:54;;;;;;;;;;;;;;;11.92;77.61;102659.19;4960479;28;20345;-71
2023/04/18 09:09:26;;;;;;;;;;;;;;;11.81;81.91;102652.53;4970367;28;20172;-71
2023/04/18 09:11:51;;;;;;;;;;;;;;;12.21;81.33;102654.91;4967446;28;19957;-71
2023/04/18 09:14:24;;;;;;;;;;;;;;;12.45;83.24;102662.53;4964091;28;20012;-70
2023/04/18 09:16:50;;;;;;;;;;;;;;;12.98;76.66;102678.38;4975081;28;19921;-70
2023/04/18 09:19:18;;;;;;;;;;;;;;;12.74;73.12;102655.47;4962822;28;19945;-70
2023/04/18 09:21:47;;;;;;;;;;;;;;;12.46;71.90;102664.28;4970818;28;19929;-72
2023/04/18 09:24:16;;;;;;;;;;;;;;;12.23;74.94;102655.69;4970337;28;20304;-71
2023/04/18 09:26:41;;;;;;;;;;;;;;;11.89;79.29;102660.19;4974535;28;19979;-71
2023/04/18 09:29:07;;;;;;;;;;;;;;;11.99;79.21;102664.16;4987177;28;20363;-70
2023/04/18 09:31:32;;;;;;;;;;;;;;;11.84;78.77;102673.91;4972112;28;20726;-71
2023/04/18 09:33:59;;;;;;;;;;;;;;;11.54;79.93;102663.84;4983561;28;20479;-70
2023/04/18 09:36:26;;;;;;;;;;;;;;;11.66;80.13;102659.63;4972729;28;19928;-70
2023/04/18 09:38:51;;;;;;;;;;;;;;;11.29;81.53;102668.75;4956049;28;20261;-71
2023/04/18 09:41:17;;;;;;;;;;;;;;;11.19;82.11;102662.97;4990758;28;20185;-70
2023/04/18 09:43:43;;;;;;;;;;;;;;;11.46;84.93;102663.34;4972120;28;20392;-70
2023/04/18 09:46:08;;;;;;;;;;;;;;;11.19;82.64;102669.22;4965841;28;19937;-71
2023/04/18 09:48:34;;;;;;;;;;;;;;;11.19;82.23;102660.28;4971510;28;20196;-70
2023/04/18 09:51:00;;;;;;;;;;;;;;;11.00;84.08;102663.03;4972915;28;19933;-72
2023/04/18 09:53:25;;;;;;;;;;;;;;;11.14;82.51;102671.25;4978638;28;19914;-71
2023/04/18 09:55:51;;;;;;;;;;;;;;;10.78;83.56;102669.50;4970323;28;19929;-70
2023/04/18 09:58:17;;;;;;;;;;;;;;;10.80;85.61;102663.09;4988584;28;19972;-71
2023/04/18 10:00:42;;;;;;;;;;;;;;;10.67;85.92;102661.09;4974361;28;20347;-70
2023/04/18 10:03:08;;;;;;;;;;;;;;;10.89;90.44;102660.91;4975440;28;19926;-71
2023/04/18 10:05:34;;;;;;;;;;;;;;;11.19;85.63;102665.69;4991693;28;20466;-72
2023/04/18 10:08:00;;;;;;;;;;;;;;;11.37;88.33;102664.72;4976747;28;19937;-71
2023/04/18 10:10:25;;;;;;;;;;;;;;;11.62;90.09;102657.19;4972809;28;20254;-71
2023/04/18 10:13:00;;;;;;;;;;;;;;;11.63;85.00;102651.72;4971897;28;19945;-71
2023/04/18 10:15:29;;;;;;;;;;;;;;;11.74;84.10;102652.97;4988600;28;20333;-71
2023/04/18 10:17:55;;;;;;;;;;;;;;;11.87;84.90;102653.16;4975688;28;20207;-70
2023/04/18 10:20:22;;;;;;;;;;;;;;;11.68;83.85;102638.00;4978590;28;20279;-70
2023/04/18 10:22:47;;;;;;;;;;;;;;;11.95;83.87;102646.41;4975868;28;19925;-72
2023/04/18 10:25:13;;;;;;;;;;;;;;;11.91;85.33;102650.22;4974132;28;19922;-71
2023/04/18 10:27:47;;;;;;;;;;;;;;;12.21;84.56;102657.59;4974594;28;19996;-71
2023/04/18 10:30:13;;;;;;;;;;;;;;;12.21;82.26;102649.50;4972455;28;19922;-71
2023/04/18 10:32:38;;;;;;;;;;;;;;;12.24;81.51;102643.94;4974011;28;19921;-71
2023/04/18 10:35:03;;;;;;;;;;;;;;;12.25;78.87;102645.69;4976152;28;19922;-71
2023/04/18 10:37:30;;;;;;;;;;;;;;;12.12;77.37;102658.09;4972797;28;19925;-71
2023/04/18 10:39:57;;;;;;;;;;;;;;;11.65;78.32;102651.63;4971416;28;20475;-71
2023/04/18 10:42:43;;;;;;;;;;;;;;;11.47;80.04;102648.09;4976114;28;19921;-71
2023/04/18 10:45:18;;;;;;;;;;;;;;;11.26;81.34;102650.94;4964897;28;20380;-70
2023/04/18 10:47:43;;;;;;;;;;;;;;;11.07;82.63;102653.72;4976518;28;20013;-70
2023/04/18 10:50:10;;;;;;;;;;;;;;;11.02;87.83;102651.25;4975114;28;19926;-72
2023/04/18 10:52:35;;;;;;;;;;;;;;;10.83;86.25;102642.41;4971551;28;19926;-71
2023/04/18 10:55:04;;;;;;;;;;;;;;;10.95;88.44;102647.16;4968719;28;20329;-71
2023/04/18 10:57:39;;;;;;;;;;;;;;;10.89;88.28;102652.84;4989535;28;20460;-71
2023/04/18 11:00:05;;;;;;;;;;;;;;;10.91;89.19;102640.19;4971848;28;20345;-70
2023/04/18 11:02:32;;;;;;;;;;;;;;;10.83;89.97;102651.34;4961238;28;20845;-72
2023/04/18 11:05:00;;;;;;;;;;;;;;;10.81;88.88;102647.84;4973844;28;19929;-71
2023/04/18 11:07:35;;;;;;;;;;;;;;;10.86;87.80;102643.09;4969629;28;20008;-70
2023/04/18 11:10:00;;;;;;;;;;;;;;;10.80;90.64;102644.28;4971365;28;19922;-71
2023/04/18 11:12:31;;;;;;;;;;;;;;;10.73;87.85;102655.41;4986456;28;19922;-71
2023/04/18 11:14:56;;;;;;;;;;;;;;;10.75;88.13;102640.09;4974884;28;19922;-71
2023/04/18 11:17:25;;;;;;;;;;;;;;;10.50;89.82;102647.53;4974666;28;20328;-72
2023/04/18 11:20:00;;;;;;;;;;;;;;;10.65;91.49;102645.06;4975644;28;19922;-70
2023/04/18 11:22:26;;;;;;;;;;;;;;;10.60;94.87;102644.41;4974324;28;19929;-71
2023/04/18 11:24:51;;;;;;;;;;;;;;;10.67;94.73;102640.47;4975617;28;19922;-71
2023/04/18 11:27:17;;;;;;;;;;;;;;;10.78;94.82;102635.44;4976232;28;19949;-71
2023/04/18 11:29:42;;;;;;;;;;;;;;;11.04;94.10;102637.75;4969867;28;19998;-71
2023/04/18 11:32:07;;;;;;;;;;;;;;;11.21;90.42;102632.38;4966993;28;20012;-70
2023/04/18 11:34:33;;;;;;;;;;;;;;;11.20;96.50;102637.84;4969455;28;19922;-71
2023/04/18 11:36:58;;;;;;;;;;;;;;;11.02;90.09;102636.97;4987128;28;20020;-70
2023/04/18 11:39:23;;;;;;;;;;;;;;;11.00;91.43;102638.84;4975813;28;19914;-70
2023/04/18 11:41:49;;;;;;;;;;;;;;;10.77;92.66;102638.19;4975896;28;19926;-71
2023/04/18 11:44:14;;;;;;;;;;;;;;;10.86;93.49;102636.88;4972171;28;20631;-71
2023/04/18 11:46:40;;;;;;;;;;;;;;;10.92;93.61;102642.78;4975296;28;19929;-71
2023/04/18 11:49:05;;;;;;;;;;;;;;;10.49;94.04;102635.06;4976921;28;19917;-72
2023/04/18 11:51:34;;;;;;;;;;;;;;;10.39;96.32;102636.47;4954578;28;20024;-71
2023/04/18 11:54:00;;;;;;;;;;;;;;;10.64;99.02;102636.13;4984702;28;19965;-72
2023/04/18 11:56:25;;;;;;;;;;;;;;;10.78;97.35;102629.19;4969086;28;20087;-71
2023/04/18 11:58:50;;;;;;;;;;;;;;;10.69;97.33;102608.16;4963503;28;19921;-72
2023/04/18 12:01:19;;;;;;;;;;;;;;;10.83;100.00;102637.91;4965767;28;19956;-71
2023/04/18 12:04:00;;;;;;;;;;;;;;;11.83;94.58;102631.81;4951044;28;19922;-71
2023/04/18 12:06:27;;;;;;;;;;;;;;;13.18;88.98;102640.31;4966046;28;19926;-72
2023/04/18 12:09:01;;;;;;;;;;;;;;;13.71;82.66;102623.63;4976682;28;19929;-71
2023/04/18 12:11:26;;;;;;;;;;;;;;;13.90;81.28;102634.16;4962727;28;19922;-73
2023/04/18 12:13:53;;;;;;;;;;;;;;;13.40;83.08;102627.34;4971889;28;19929;-72
2023/04/18 12:16:18;;;;;;;;;;;;;;;13.25;83.12;102618.38;4971535;28;19929;-71
2023/04/18 12:18:46;;;;;;;;;;;;;;;13.47;nan;102629.59;4965806;28;19922;-71
2023/04/18 12:21:11;;;;;;;;;;;;;;;13.03;83.94;102619.69;4964388;28;20368;-71
2023/04/18 12:23:38;;;;;;;;;;;;;;;12.57;81.83;102634.91;4965899;28;19922;-71
2023/04/18 12:26:05;;;;;;;;;;;;;;;12.72;81.62;102619.66;4966756;28;19928;-72
2023/04/18 12:28:31;;;;;;;;;;;;;;;12.68;84.03;102630.72;4969768;28;19925;-72